So Nice — ZCYJ — position and weather

sailwx.info

Track history (hours):
 
Tides and Currents Weather Stations Pressure Air Temp Water Temp Dewpoint Dewpoint Depression Visibility Wind Speed Wind Dir Waves Ship Positions

So Nice

Last reported at 2018-Jul-23 14:59 UTC. Time now 2018-Jul-23 15:05 UTC.
Position N 40°43' W 074°01'.

Length 40 m; draft 2.3 m.

Type: Pleasure craft. MMSI: 319003500.

Date/timePositionNaut miles runAvg speedWind from/ knotsBaromVisibWave heightAir tempDewpointWater temp
2018-Jul-23 14:59N 40°43' W 074°01'0 0.0
2018-Jul-23 14:29N 40°43' W 074°01'0 0.0
2018-Jul-23 13:59N 40°43' W 074°01'0 0.0
2018-Jul-23 13:29N 40°43' W 074°01'0 0.0
2018-Jul-23 12:59N 40°43' W 074°01'0 0.0
2018-Jul-23 12:29N 40°43' W 074°01'0 0.0
2018-Jul-23 11:59N 40°43' W 074°01'0 0.0
2018-Jul-23 11:29N 40°43' W 074°01'0 0.0
2018-Jul-23 10:59N 40°43' W 074°01'0 0.0
2018-Jul-23 10:23N 40°43' W 074°01'0 0.0
2018-Jul-23 09:59N 40°43' W 074°01'0 0.0
2018-Jul-23 09:29N 40°43' W 074°01'0 0.0
2018-Jul-23 08:59N 40°43' W 074°01'0 0.0
2018-Jul-23 08:29N 40°43' W 074°01'0 0.0
2018-Jul-23 07:53N 40°43' W 074°01'0 0.0
2018-Jul-23 07:29N 40°43' W 074°01'0 0.0
2018-Jul-23 06:59N 40°43' W 074°01'0 0.0
2018-Jul-23 06:29N 40°43' W 074°01'0 0.0
2018-Jul-23 05:59N 40°43' W 074°01'0 0.0
2018-Jul-23 05:29N 40°43' W 074°01'0 0.0
2018-Jul-23 04:59N 40°43' W 074°01'0 0.0
2018-Jul-23 04:29N 40°43' W 074°01'0 0.0
2018-Jul-23 03:59N 40°43' W 074°01'0 0.0
2018-Jul-23 03:29N 40°43' W 074°01'0 0.0
2018-Jul-23 02:59N 40°43' W 074°01'0 0.0
2018-Jul-23 02:29N 40°43' W 074°01'0 0.0
2018-Jul-23 01:59N 40°43' W 074°01'0 0.0
2018-Jul-23 01:29N 40°43' W 074°01'0 0.0
2018-Jul-23 00:59N 40°43' W 074°01'0 0.0
2018-Jul-23 00:29N 40°43' W 074°01'0 0.0
2018-Jul-22 23:59N 40°43' W 074°01'0 0.0
2018-Jul-22 23:29N 40°43' W 074°01'0 0.0
2018-Jul-22 22:59N 40°43' W 074°01'0 0.0
2018-Jul-22 22:29N 40°43' W 074°01'0 0.0
2018-Jul-22 21:59N 40°43' W 074°01'0 0.0
2018-Jul-22 21:29N 40°43' W 074°01'0 0.0
2018-Jul-22 20:44N 40°43' W 074°01'0 0.0
2018-Jul-22 20:17N 40°43' W 074°01'0 0.0
2018-Jul-22 19:53N 40°43' W 074°01'0 0.0
2018-Jul-22 18:44N 40°43' W 074°01'0 0.0
2018-Jul-22 17:41N 40°43' W 074°01'0 0.0
2018-Jul-22 17:20N 40°43' W 074°01'0 0.0
2018-Jul-22 16:59N 40°43' W 074°01'0 0.0
2018-Jul-22 15:17N 40°43' W 074°01'0 0.0
2018-Jul-22 14:20N 40°43' W 074°01'0 0.0
2018-Jul-22 13:05N 40°43' W 074°01'0 0.0
2018-Jul-22 12:56N 40°43' W 074°01'0 0.0
2018-Jul-22 10:44N 40°43' W 074°01'0 0.0
2018-Jul-22 10:29N 40°43' W 074°01'0 0.0
2018-Jul-22 09:59N 40°43' W 074°01'0 0.0
2018-Jul-22 09:29N 40°43' W 074°01'0 0.0
2018-Jul-22 08:59N 40°43' W 074°01'0 0.0
2018-Jul-22 08:29N 40°43' W 074°01'0 0.0
2018-Jul-22 07:59N 40°43' W 074°01'0 0.0
2018-Jul-22 07:29N 40°43' W 074°01'0 0.0
2018-Jul-22 06:59N 40°43' W 074°01'0 0.0
2018-Jul-22 06:29N 40°43' W 074°01'0 0.0
2018-Jul-22 05:59N 40°43' W 074°01'0 0.0
2018-Jul-22 05:29N 40°43' W 074°01'0 0.0
2018-Jul-22 04:59N 40°43' W 074°01'0 0.0
2018-Jul-22 04:29N 40°43' W 074°01'0 0.0
2018-Jul-22 03:59N 40°43' W 074°01'0 0.0
2018-Jul-22 03:29N 40°43' W 074°01'0 0.0
2018-Jul-22 02:59N 40°43' W 074°01'0 0.0
2018-Jul-22 02:29N 40°43' W 074°01'0 0.0
2018-Jul-22 01:59N 40°43' W 074°01'0 0.0
2018-Jul-22 01:29N 40°43' W 074°01'0 0.0
2018-Jul-22 00:59N 40°43' W 074°01'0 0.0
2018-Jul-22 00:29N 40°43' W 074°01'0 0.0
2018-Jul-21 23:59N 40°43' W 074°01'0 0.0
2018-Jul-21 23:26N 40°43' W 074°01'0 0.0
2018-Jul-21 22:59N 40°43' W 074°01'0 0.0
2018-Jul-21 22:30N 40°43' W 074°01'2 3.6
2018-Jul-21 22:00N 40°41' W 074°02'4 8.1
2018-Jul-21 21:30N 40°44' W 073°58'2 0.5
2018-Jul-21 16:53N 40°46' W 073°57'4 9.6
2018-Jul-21 16:31N 40°42' W 073°59'2 2.9
2018-Jul-21 15:58N 40°43' W 074°01'0 0.0
2018-Jul-21 15:28N 40°43' W 074°01'0 0.0
2018-Jul-21 14:58N 40°43' W 074°01'0 0.0
2018-Jul-21 14:28N 40°43' W 074°01'0 0.0
2018-Jul-21 13:58N 40°43' W 074°01'0 0.0
2018-Jul-21 13:28N 40°43' W 074°01'0 0.0
2018-Jul-21 12:58N 40°43' W 074°01'0 0.0
2018-Jul-21 12:28N 40°43' W 074°01'0 0.0
2018-Jul-21 11:58N 40°43' W 074°01'0 0.0
2018-Jul-21 11:28N 40°43' W 074°01'0 0.0
2018-Jul-21 10:58N 40°43' W 074°01'0 0.0
2018-Jul-21 10:28N 40°43' W 074°01'0 0.0
2018-Jul-21 09:58N 40°43' W 074°01'0 0.0
2018-Jul-21 09:28N 40°43' W 074°01'0 0.0
2018-Jul-21 08:58N 40°43' W 074°01'0 0.0
2018-Jul-21 08:28N 40°43' W 074°01'0 0.0
2018-Jul-21 07:58N 40°43' W 074°01'0 0.0
2018-Jul-21 07:28N 40°43' W 074°01'0 0.0
2018-Jul-21 06:58N 40°43' W 074°01'0 0.0
2018-Jul-21 06:25N 40°43' W 074°01'0 0.0
2018-Jul-21 05:58N 40°43' W 074°01'0 0.0
2018-Jul-21 05:28N 40°43' W 074°01'0 0.0
2018-Jul-21 04:58N 40°43' W 074°01'0 0.1
2018-Jul-21 04:28N 40°43' W 074°01'0 0.1
2018-Jul-21 03:58N 40°43' W 074°01'0 0.0
2018-Jul-21 03:28N 40°43' W 074°01'0 0.0
2018-Jul-21 02:58N 40°43' W 074°01'0 0.0
2018-Jul-21 02:28N 40°43' W 074°01'0 0.0
2018-Jul-21 01:58N 40°43' W 074°01'0 0.0
2018-Jul-21 01:28N 40°43' W 074°01'0 0.0
2018-Jul-21 00:58N 40°43' W 074°01'0 0.1
2018-Jul-21 00:28N 40°43' W 074°01'0 0.0
2018-Jul-20 23:58N 40°43' W 074°01'0 0.0
2018-Jul-20 23:28N 40°43' W 074°01'0 0.0
2018-Jul-20 22:58N 40°43' W 074°01'0 0.0
2018-Jul-20 22:28N 40°43' W 074°01'0 0.0
2018-Jul-20 21:58N 40°43' W 074°01'0 0.0
2018-Jul-20 21:28N 40°43' W 074°01'0 0.0
2018-Jul-20 20:58N 40°43' W 074°01'0 0.0
2018-Jul-20 20:28N 40°43' W 074°01'0 0.0
2018-Jul-20 19:58N 40°43' W 074°01'0 0.0
2018-Jul-20 19:28N 40°43' W 074°01'0 0.0
2018-Jul-20 18:58N 40°43' W 074°01'0 0.0
2018-Jul-20 18:28N 40°43' W 074°01'0 0.0
2018-Jul-20 17:58N 40°43' W 074°01'0 0.0
2018-Jul-20 17:28N 40°43' W 074°01'0 0.0
2018-Jul-20 16:58N 40°43' W 074°01'0 0.0
2018-Jul-20 16:28N 40°43' W 074°01'0 0.0
2018-Jul-20 15:58N 40°43' W 074°01'0 0.0
2018-Jul-20 15:28N 40°43' W 074°01'0 0.0
2018-Jul-20 14:58N 40°43' W 074°01'0 0.0
2018-Jul-20 14:28N 40°43' W 074°01'0 0.0
2018-Jul-20 13:58N 40°43' W 074°01'0 0.0
2018-Jul-20 13:28N 40°43' W 074°01'0 0.0
2018-Jul-20 12:58N 40°43' W 074°01'0 0.0
2018-Jul-20 12:28N 40°43' W 074°01'0 0.0
2018-Jul-20 11:58N 40°43' W 074°01'0 0.0
2018-Jul-20 11:28N 40°43' W 074°01'0 0.0
2018-Jul-20 10:58N 40°43' W 074°01'0 0.0
2018-Jul-20 10:28N 40°43' W 074°01'0 0.0
2018-Jul-20 09:58N 40°43' W 074°01'0 0.0
2018-Jul-20 09:28N 40°43' W 074°01'0 0.0
2018-Jul-20 08:58N 40°43' W 074°01'0 0.0
2018-Jul-20 08:28N 40°43' W 074°01'0 0.0
2018-Jul-20 07:58N 40°43' W 074°01'0 0.0
2018-Jul-20 07:28N 40°43' W 074°01'0 0.0
2018-Jul-20 06:58N 40°43' W 074°01'0 0.0
2018-Jul-20 06:28N 40°43' W 074°01'0 0.0
2018-Jul-20 05:58N 40°43' W 074°01'0 0.0
2018-Jul-20 05:28N 40°43' W 074°01'0 0.0
2018-Jul-20 04:58N 40°43' W 074°01'0 0.0
2018-Jul-20 04:28N 40°43' W 074°01'0 0.0
2018-Jul-20 03:58N 40°43' W 074°01'0 0.0
2018-Jul-20 03:28N 40°43' W 074°01'0 0.0
2018-Jul-20 02:58N 40°43' W 074°01'0 0.0
2018-Jul-20 02:28N 40°43' W 074°01'0 0.0
2018-Jul-20 01:58N 40°43' W 074°01'0 0.0
2018-Jul-20 01:28N 40°43' W 074°01'0 0.1
2018-Jul-20 00:58N 40°43' W 074°01'0 0.1
2018-Jul-20 00:28N 40°43' W 074°01'0 0.0
2018-Jul-19 23:58N 40°43' W 074°01'0 0.0
2018-Jul-19 23:28N 40°43' W 074°01'0 0.0
2018-Jul-19 22:58N 40°43' W 074°01'0 0.0
2018-Jul-19 22:28N 40°43' W 074°01'0 0.0
2018-Jul-19 21:58N 40°43' W 074°01'0 0.0
2018-Jul-19 21:28N 40°43' W 074°01'0 0.0
2018-Jul-19 20:58N 40°43' W 074°01'0 0.0
2018-Jul-19 20:28N 40°43' W 074°01'0 0.0
2018-Jul-19 19:58N 40°43' W 074°01'0 0.0
2018-Jul-19 19:28N 40°43' W 074°01'0 0.0
2018-Jul-19 18:58N 40°43' W 074°01'0 0.0
2018-Jul-19 18:28N 40°43' W 074°01'0 0.0
2018-Jul-19 17:58N 40°43' W 074°01'0 0.0
2018-Jul-19 17:28N 40°43' W 074°01'0 0.0
2018-Jul-19 16:58N 40°43' W 074°01'0 0.0
2018-Jul-19 16:28N 40°43' W 074°01'0 0.0
2018-Jul-19 15:58N 40°43' W 074°01'0 0.0
2018-Jul-19 15:28N 40°43' W 074°01'0 0.0
2018-Jul-19 14:58N 40°43' W 074°01'0 0.0
2018-Jul-19 14:28N 40°43' W 074°01'0 0.0
2018-Jul-19 13:28N 40°43' W 074°01'0 0.0
2018-Jul-19 12:58N 40°43' W 074°01'0 0.0
2018-Jul-19 12:28N 40°43' W 074°01'0 0.0
2018-Jul-19 11:58N 40°43' W 074°01'0 0.0
2018-Jul-19 11:28N 40°43' W 074°01'0 0.0
2018-Jul-19 10:58N 40°43' W 074°01'0 0.0
2018-Jul-19 10:28N 40°43' W 074°01'0 0.0
2018-Jul-19 09:58N 40°43' W 074°01'0 0.0
2018-Jul-19 09:28N 40°43' W 074°01'0 0.0
2018-Jul-19 08:58N 40°43' W 074°01'0 0.0
2018-Jul-19 08:28N 40°43' W 074°01'0 0.0
2018-Jul-19 07:58N 40°43' W 074°01'0 0.0
2018-Jul-19 07:28N 40°43' W 074°01'0 0.0
2018-Jul-19 06:58N 40°43' W 074°01'0 0.0
2018-Jul-19 06:28N 40°43' W 074°01'0 0.0
2018-Jul-19 05:58N 40°43' W 074°01'0 0.0
2018-Jul-19 05:28N 40°43' W 074°01'0 0.0
2018-Jul-19 04:58N 40°43' W 074°01'0 0.0
2018-Jul-19 04:28N 40°43' W 074°01'0 0.0
2018-Jul-19 03:58N 40°43' W 074°01'0 0.0
2018-Jul-19 03:28N 40°43' W 074°01'0 0.0
2018-Jul-19 02:58N 40°43' W 074°01'0 0.0
2018-Jul-19 02:28N 40°43' W 074°01'0 0.0
2018-Jul-19 01:58N 40°43' W 074°01'0 0.0
2018-Jul-19 01:28N 40°43' W 074°01'0 0.1
2018-Jul-19 00:58N 40°43' W 074°01'0 0.1
2018-Jul-19 00:28N 40°43' W 074°01'0 0.0
2018-Jul-18 23:58N 40°43' W 074°01'0 0.0
2018-Jul-18 23:28N 40°43' W 074°01'0 0.0
2018-Jul-18 22:58N 40°43' W 074°01'0 0.0
2018-Jul-18 22:28N 40°43' W 074°01'0 0.0
2018-Jul-18 21:58N 40°43' W 074°01'0 0.0
2018-Jul-18 21:28N 40°43' W 074°01'0 0.0
2018-Jul-18 20:58N 40°43' W 074°01'0 0.0
2018-Jul-18 20:28N 40°43' W 074°01'0 0.0
2018-Jul-18 19:58N 40°43' W 074°01'0 0.0
2018-Jul-18 19:28N 40°43' W 074°01'0 0.0
2018-Jul-18 18:58N 40°43' W 074°01'0 0.0
2018-Jul-18 18:28N 40°43' W 074°01'0 0.0
2018-Jul-18 17:58N 40°43' W 074°01'0 0.0
2018-Jul-18 17:28N 40°43' W 074°01'0 0.0
2018-Jul-18 16:58N 40°43' W 074°01'0 0.0
2018-Jul-18 16:28N 40°43' W 074°01'0 0.0
2018-Jul-18 15:58N 40°43' W 074°01'0 0.0
2018-Jul-18 15:28N 40°43' W 074°01'0 0.0
2018-Jul-18 14:58N 40°43' W 074°01'0 0.0
2018-Jul-18 14:28N 40°43' W 074°01'0 0.0
2018-Jul-18 13:28N 40°43' W 074°01'0 0.0
2018-Jul-18 13:01N 40°43' W 074°01'0 0.0
2018-Jul-18 12:28N 40°43' W 074°01'0 0.0
2018-Jul-18 11:58N 40°43' W 074°01'0 0.0
2018-Jul-18 11:28N 40°43' W 074°01'0 0.0
2018-Jul-18 10:28N 40°43' W 074°01'0 0.0
2018-Jul-18 09:58N 40°43' W 074°01'0 0.0
2018-Jul-18 09:28N 40°43' W 074°01'0 0.0
2018-Jul-18 08:58N 40°43' W 074°01'0 0.0
2018-Jul-18 08:28N 40°43' W 074°01'0 0.0
2018-Jul-18 07:58N 40°43' W 074°01'0 0.0
2018-Jul-18 07:27N 40°43' W 074°01'0 0.0
2018-Jul-18 07:00N 40°43' W 074°01'0 0.0
2018-Jul-18 06:27N 40°43' W 074°01'0 0.0
2018-Jul-18 06:01N 40°43' W 074°01'0 0.0
2018-Jul-18 05:28N 40°43' W 074°01'0 0.0
2018-Jul-18 04:58N 40°43' W 074°01'0 0.0
2018-Jul-18 04:28N 40°43' W 074°01'0 0.0
2018-Jul-18 03:58N 40°43' W 074°01'0 0.0
2018-Jul-18 03:28N 40°43' W 074°01'0 0.0
2018-Jul-18 03:00N 40°43' W 074°01'0 0.0
2018-Jul-18 02:27N 40°43' W 074°01'0 0.0
2018-Jul-18 02:00N 40°43' W 074°01'0 0.0
2018-Jul-18 01:30N 40°43' W 074°01'0 0.0
2018-Jul-18 00:58N 40°43' W 074°01'0 0.0
2018-Jul-18 00:28N 40°43' W 074°01'0 0.0
2018-Jul-18 00:00N 40°43' W 074°01'0 0.0
2018-Jul-17 23:28N 40°43' W 074°01'0 0.0
2018-Jul-17 23:00N 40°43' W 074°01'0 0.0
2018-Jul-17 22:25N 40°43' W 074°01'0 0.0
2018-Jul-17 21:58N 40°43' W 074°01'0 0.0
2018-Jul-17 21:27N 40°43' W 074°01'0 0.0
2018-Jul-17 21:00N 40°43' W 074°01'0 0.0
2018-Jul-17 20:30N 40°43' W 074°01'0 0.0
2018-Jul-17 20:00N 40°43' W 074°01'0 0.0
2018-Jul-17 19:30N 40°43' W 074°01'0 0.0
2018-Jul-17 19:00N 40°43' W 074°01'0 0.0
2018-Jul-17 18:30N 40°43' W 074°01'0 0.0
2018-Jul-17 18:00N 40°43' W 074°01'0 0.0
2018-Jul-17 17:30N 40°43' W 074°01'0 0.0
2018-Jul-17 17:01N 40°43' W 074°01'0 0.0
2018-Jul-17 16:30N 40°43' W 074°01'0 0.0
2018-Jul-17 15:58N 40°43' W 074°01'0 0.0
2018-Jul-17 15:31N 40°43' W 074°01'0 0.0
2018-Jul-17 15:00N 40°43' W 074°01'0 0.0
2018-Jul-17 14:27N 40°43' W 074°01'0 0.0
2018-Jul-17 14:00N 40°43' W 074°01'0 0.0
2018-Jul-17 13:30N 40°43' W 074°01'0 0.0
2018-Jul-17 13:00N 40°43' W 074°01'0 0.0
2018-Jul-17 12:30N 40°43' W 074°01'0 0.0
2018-Jul-17 12:00N 40°43' W 074°01'0 0.0
2018-Jul-17 11:30N 40°43' W 074°01'0 0.0
2018-Jul-17 11:00N 40°43' W 074°01'0 0.0
2018-Jul-17 10:30N 40°43' W 074°01'0 0.0
2018-Jul-17 10:00N 40°43' W 074°01'0 0.0
2018-Jul-17 09:27N 40°43' W 074°01'0 0.0
2018-Jul-17 09:00N 40°43' W 074°01'0 0.0
2018-Jul-17 08:30N 40°43' W 074°01'0 0.0
2018-Jul-17 08:00N 40°43' W 074°01'0 0.0
2018-Jul-17 07:30N 40°43' W 074°01'0 0.0
2018-Jul-17 07:00N 40°43' W 074°01'0 0.0
2018-Jul-17 06:31N 40°43' W 074°01'0 0.0
2018-Jul-17 06:00N 40°43' W 074°01'0 0.0
2018-Jul-17 05:30N 40°43' W 074°01'0 0.0
2018-Jul-17 05:00N 40°43' W 074°01'0 0.0
2018-Jul-17 04:30N 40°43' W 074°01'0 0.0
2018-Jul-17 04:00N 40°43' W 074°01'0 0.0
2018-Jul-17 03:30N 40°43' W 074°01'0 0.0
2018-Jul-17 03:00N 40°43' W 074°01'0 0.0
2018-Jul-17 02:31N 40°43' W 074°01'0 0.0
2018-Jul-17 02:00N 40°43' W 074°01'0 0.0
2018-Jul-17 01:30N 40°43' W 074°01'0 0.0
2018-Jul-17 01:00N 40°43' W 074°01'0 0.0
2018-Jul-17 00:27N 40°43' W 074°01'0 0.0
2018-Jul-16 23:30N 40°43' W 074°01'0 0.0
2018-Jul-16 23:00N 40°43' W 074°01'0 0.0
2018-Jul-16 22:30N 40°43' W 074°01'0 0.0
2018-Jul-16 22:00N 40°43' W 074°01'0 0.0
2018-Jul-16 21:30N 40°43' W 074°01'0 0.0
2018-Jul-16 21:00N 40°43' W 074°01'0 0.0
2018-Jul-16 20:30N 40°43' W 074°01'0 0.0
2018-Jul-16 20:00N 40°43' W 074°01'0 0.0
2018-Jul-16 19:30N 40°43' W 074°01'0 0.0
2018-Jul-16 19:00N 40°43' W 074°01'0 0.0
2018-Jul-16 18:30N 40°43' W 074°01'0 0.0
2018-Jul-16 18:00N 40°43' W 074°01'0 0.0
2018-Jul-16 17:30N 40°43' W 074°01'0 0.0
2018-Jul-16 17:00N 40°43' W 074°01'0 0.0
2018-Jul-16 16:30N 40°43' W 074°01'0 0.0
2018-Jul-16 16:00N 40°43' W 074°01'0 0.0
2018-Jul-16 15:30N 40°43' W 074°01'0 0.0
2018-Jul-16 15:00N 40°43' W 074°01'0 0.0
2018-Jul-16 14:30N 40°43' W 074°01'0 0.0
2018-Jul-16 14:00N 40°43' W 074°01'0 0.0
2018-Jul-16 13:30N 40°43' W 074°01'0 0.0
2018-Jul-16 13:00N 40°43' W 074°01'0 0.0
2018-Jul-16 12:30N 40°43' W 074°01'0 0.0
2018-Jul-16 12:00N 40°43' W 074°01'0 0.0
2018-Jul-16 11:30N 40°43' W 074°01'0 0.0
2018-Jul-16 02:09N 40°43' W 074°01'0 0.0
2018-Jul-16 02:00N 40°43' W 074°01'0 0.0
2018-Jul-16 00:51N 40°43' W 074°01'0 0.0
2018-Jul-16 00:30N 40°43' W 074°01'0 0.0
2018-Jul-15 23:57N 40°43' W 074°01'0 0.0
2018-Jul-15 23:30N 40°43' W 074°01'0 0.7
2018-Jul-15 23:00N 40°43' W 074°01'6611.0
2018-Jul-15 16:59N 41°07' W 072°40'1313.1
2018-Jul-15 16:01N 41°10' W 072°23'114.4
2018-Jul-15 15:58N 41°10' W 072°22'  
Track history (hours):
 
Tides and Currents Weather Stations Pressure Air Temp Water Temp Dewpoint Dewpoint Depression Visibility Wind Speed Wind Dir Waves Ship Positions

So Nice

Last reported at 2018-Jul-23 14:59 UTC. Time now 2018-Jul-23 15:05 UTC.
Position N 40°43' W 074°01'.

Length 40 m; draft 2.3 m.

Type: Pleasure craft. MMSI: 319003500.

Date/timePositionNaut miles runAvg speedWind from/ knotsBaromVisibWave heightAir tempDewpointWater temp
2018-Jul-23 14:59N 40°43' W 074°01'0 0.0
2018-Jul-23 14:29N 40°43' W 074°01'0 0.0
2018-Jul-23 13:59N 40°43' W 074°01'0 0.0
2018-Jul-23 13:29N 40°43' W 074°01'0 0.0
2018-Jul-23 12:59N 40°43' W 074°01'0 0.0
2018-Jul-23 12:29N 40°43' W 074°01'0 0.0
2018-Jul-23 11:59N 40°43' W 074°01'0 0.0
2018-Jul-23 11:29N 40°43' W 074°01'0 0.0
2018-Jul-23 10:59N 40°43' W 074°01'0 0.0
2018-Jul-23 10:23N 40°43' W 074°01'0 0.0
2018-Jul-23 09:59N 40°43' W 074°01'0 0.0
2018-Jul-23 09:29N 40°43' W 074°01'0 0.0
2018-Jul-23 08:59N 40°43' W 074°01'0 0.0
2018-Jul-23 08:29N 40°43' W 074°01'0 0.0
2018-Jul-23 07:53N 40°43' W 074°01'0 0.0
2018-Jul-23 07:29N 40°43' W 074°01'0 0.0
2018-Jul-23 06:59N 40°43' W 074°01'0 0.0
2018-Jul-23 06:29N 40°43' W 074°01'0 0.0
2018-Jul-23 05:59N 40°43' W 074°01'0 0.0
2018-Jul-23 05:29N 40°43' W 074°01'0 0.0
2018-Jul-23 04:59N 40°43' W 074°01'0 0.0
2018-Jul-23 04:29N 40°43' W 074°01'0 0.0
2018-Jul-23 03:59N 40°43' W 074°01'0 0.0
2018-Jul-23 03:29N 40°43' W 074°01'0 0.0
2018-Jul-23 02:59N 40°43' W 074°01'0 0.0
2018-Jul-23 02:29N 40°43' W 074°01'0 0.0
2018-Jul-23 01:59N 40°43' W 074°01'0 0.0
2018-Jul-23 01:29N 40°43' W 074°01'0 0.0
2018-Jul-23 00:59N 40°43' W 074°01'0 0.0
2018-Jul-23 00:29N 40°43' W 074°01'0 0.0
2018-Jul-22 23:59N 40°43' W 074°01'0 0.0
2018-Jul-22 23:29N 40°43' W 074°01'0 0.0
2018-Jul-22 22:59N 40°43' W 074°01'0 0.0
2018-Jul-22 22:29N 40°43' W 074°01'0 0.0
2018-Jul-22 21:59N 40°43' W 074°01'0 0.0
2018-Jul-22 21:29N 40°43' W 074°01'0 0.0
2018-Jul-22 20:44N 40°43' W 074°01'0 0.0
2018-Jul-22 20:17N 40°43' W 074°01'0 0.0
2018-Jul-22 19:53N 40°43' W 074°01'0 0.0
2018-Jul-22 18:44N 40°43' W 074°01'0 0.0
2018-Jul-22 17:41N 40°43' W 074°01'0 0.0
2018-Jul-22 17:20N 40°43' W 074°01'0 0.0
2018-Jul-22 16:59N 40°43' W 074°01'0 0.0
2018-Jul-22 15:17N 40°43' W 074°01'0 0.0
2018-Jul-22 14:20N 40°43' W 074°01'0 0.0
2018-Jul-22 13:05N 40°43' W 074°01'0 0.0
2018-Jul-22 12:56N 40°43' W 074°01'0 0.0
2018-Jul-22 10:44N 40°43' W 074°01'0 0.0
2018-Jul-22 10:29N 40°43' W 074°01'0 0.0
2018-Jul-22 09:59N 40°43' W 074°01'0 0.0
2018-Jul-22 09:29N 40°43' W 074°01'0 0.0
2018-Jul-22 08:59N 40°43' W 074°01'0 0.0
2018-Jul-22 08:29N 40°43' W 074°01'0 0.0
2018-Jul-22 07:59N 40°43' W 074°01'0 0.0
2018-Jul-22 07:29N 40°43' W 074°01'0 0.0
2018-Jul-22 06:59N 40°43' W 074°01'0 0.0
2018-Jul-22 06:29N 40°43' W 074°01'0 0.0
2018-Jul-22 05:59N 40°43' W 074°01'0 0.0
2018-Jul-22 05:29N 40°43' W 074°01'0 0.0
2018-Jul-22 04:59N 40°43' W 074°01'0 0.0
2018-Jul-22 04:29N 40°43' W 074°01'0 0.0
2018-Jul-22 03:59N 40°43' W 074°01'0 0.0
2018-Jul-22 03:29N 40°43' W 074°01'0 0.0
2018-Jul-22 02:59N 40°43' W 074°01'0 0.0
2018-Jul-22 02:29N 40°43' W 074°01'0 0.0
2018-Jul-22 01:59N 40°43' W 074°01'0 0.0
2018-Jul-22 01:29N 40°43' W 074°01'0 0.0
2018-Jul-22 00:59N 40°43' W 074°01'0 0.0
2018-Jul-22 00:29N 40°43' W 074°01'0 0.0
2018-Jul-21 23:59N 40°43' W 074°01'0 0.0
2018-Jul-21 23:26N 40°43' W 074°01'0 0.0
2018-Jul-21 22:59N 40°43' W 074°01'0 0.0
2018-Jul-21 22:30N 40°43' W 074°01'2 3.6
2018-Jul-21 22:00N 40°41' W 074°02'4 8.1
2018-Jul-21 21:30N 40°44' W 073°58'2 0.5
2018-Jul-21 16:53N 40°46' W 073°57'4 9.6
2018-Jul-21 16:31N 40°42' W 073°59'2 2.9
2018-Jul-21 15:58N 40°43' W 074°01'0 0.0
2018-Jul-21 15:28N 40°43' W 074°01'0 0.0
2018-Jul-21 14:58N 40°43' W 074°01'0 0.0
2018-Jul-21 14:28N 40°43' W 074°01'0 0.0
2018-Jul-21 13:58N 40°43' W 074°01'0 0.0
2018-Jul-21 13:28N 40°43' W 074°01'0 0.0
2018-Jul-21 12:58N 40°43' W 074°01'0 0.0
2018-Jul-21 12:28N 40°43' W 074°01'0 0.0
2018-Jul-21 11:58N 40°43' W 074°01'0 0.0
2018-Jul-21 11:28N 40°43' W 074°01'0 0.0
2018-Jul-21 10:58N 40°43' W 074°01'0 0.0
2018-Jul-21 10:28N 40°43' W 074°01'0 0.0
2018-Jul-21 09:58N 40°43' W 074°01'0 0.0
2018-Jul-21 09:28N 40°43' W 074°01'0 0.0
2018-Jul-21 08:58N 40°43' W 074°01'0 0.0
2018-Jul-21 08:28N 40°43' W 074°01'0 0.0
2018-Jul-21 07:58N 40°43' W 074°01'0 0.0
2018-Jul-21 07:28N 40°43' W 074°01'0 0.0
2018-Jul-21 06:58N 40°43' W 074°01'0 0.0
2018-Jul-21 06:25N 40°43' W 074°01'0 0.0
2018-Jul-21 05:58N 40°43' W 074°01'0 0.0
2018-Jul-21 05:28N 40°43' W 074°01'0 0.0
2018-Jul-21 04:58N 40°43' W 074°01'0 0.1
2018-Jul-21 04:28N 40°43' W 074°01'0 0.1
2018-Jul-21 03:58N 40°43' W 074°01'0 0.0
2018-Jul-21 03:28N 40°43' W 074°01'0 0.0
2018-Jul-21 02:58N 40°43' W 074°01'0 0.0
2018-Jul-21 02:28N 40°43' W 074°01'0 0.0
2018-Jul-21 01:58N 40°43' W 074°01'0 0.0
2018-Jul-21 01:28N 40°43' W 074°01'0 0.0
2018-Jul-21 00:58N 40°43' W 074°01'0 0.1
2018-Jul-21 00:28N 40°43' W 074°01'0 0.0
2018-Jul-20 23:58N 40°43' W 074°01'0 0.0
2018-Jul-20 23:28N 40°43' W 074°01'0 0.0
2018-Jul-20 22:58N 40°43' W 074°01'0 0.0
2018-Jul-20 22:28N 40°43' W 074°01'0 0.0
2018-Jul-20 21:58N 40°43' W 074°01'0 0.0
2018-Jul-20 21:28N 40°43' W 074°01'0 0.0
2018-Jul-20 20:58N 40°43' W 074°01'0 0.0
2018-Jul-20 20:28N 40°43' W 074°01'0 0.0
2018-Jul-20 19:58N 40°43' W 074°01'0 0.0
2018-Jul-20 19:28N 40°43' W 074°01'0 0.0
2018-Jul-20 18:58N 40°43' W 074°01'0 0.0
2018-Jul-20 18:28N 40°43' W 074°01'0 0.0
2018-Jul-20 17:58N 40°43' W 074°01'0 0.0
2018-Jul-20 17:28N 40°43' W 074°01'0 0.0
2018-Jul-20 16:58N 40°43' W 074°01'0 0.0
2018-Jul-20 16:28N 40°43' W 074°01'0 0.0
2018-Jul-20 15:58N 40°43' W 074°01'0 0.0
2018-Jul-20 15:28N 40°43' W 074°01'0 0.0
2018-Jul-20 14:58N 40°43' W 074°01'0 0.0
2018-Jul-20 14:28N 40°43' W 074°01'0 0.0
2018-Jul-20 13:58N 40°43' W 074°01'0 0.0
2018-Jul-20 13:28N 40°43' W 074°01'0 0.0
2018-Jul-20 12:58N 40°43' W 074°01'0 0.0
2018-Jul-20 12:28N 40°43' W 074°01'0 0.0
2018-Jul-20 11:58N 40°43' W 074°01'0 0.0
2018-Jul-20 11:28N 40°43' W 074°01'0 0.0
2018-Jul-20 10:58N 40°43' W 074°01'0 0.0
2018-Jul-20 10:28N 40°43' W 074°01'0 0.0
2018-Jul-20 09:58N 40°43' W 074°01'0 0.0
2018-Jul-20 09:28N 40°43' W 074°01'0 0.0
2018-Jul-20 08:58N 40°43' W 074°01'0 0.0
2018-Jul-20 08:28N 40°43' W 074°01'0 0.0
2018-Jul-20 07:58N 40°43' W 074°01'0 0.0
2018-Jul-20 07:28N 40°43' W 074°01'0 0.0
2018-Jul-20 06:58N 40°43' W 074°01'0 0.0
2018-Jul-20 06:28N 40°43' W 074°01'0 0.0
2018-Jul-20 05:58N 40°43' W 074°01'0 0.0
2018-Jul-20 05:28N 40°43' W 074°01'0 0.0
2018-Jul-20 04:58N 40°43' W 074°01'0 0.0
2018-Jul-20 04:28N 40°43' W 074°01'0 0.0
2018-Jul-20 03:58N 40°43' W 074°01'0 0.0
2018-Jul-20 03:28N 40°43' W 074°01'0 0.0
2018-Jul-20 02:58N 40°43' W 074°01'0 0.0
2018-Jul-20 02:28N 40°43' W 074°01'0 0.0
2018-Jul-20 01:58N 40°43' W 074°01'0 0.0
2018-Jul-20 01:28N 40°43' W 074°01'0 0.1
2018-Jul-20 00:58N 40°43' W 074°01'0 0.1
2018-Jul-20 00:28N 40°43' W 074°01'0 0.0
2018-Jul-19 23:58N 40°43' W 074°01'0 0.0
2018-Jul-19 23:28N 40°43' W 074°01'0 0.0
2018-Jul-19 22:58N 40°43' W 074°01'0 0.0
2018-Jul-19 22:28N 40°43' W 074°01'0 0.0
2018-Jul-19 21:58N 40°43' W 074°01'0 0.0
2018-Jul-19 21:28N 40°43' W 074°01'0 0.0
2018-Jul-19 20:58N 40°43' W 074°01'0 0.0
2018-Jul-19 20:28N 40°43' W 074°01'0 0.0
2018-Jul-19 19:58N 40°43' W 074°01'0 0.0
2018-Jul-19 19:28N 40°43' W 074°01'0 0.0
2018-Jul-19 18:58N 40°43' W 074°01'0 0.0
2018-Jul-19 18:28N 40°43' W 074°01'0 0.0
2018-Jul-19 17:58N 40°43' W 074°01'0 0.0
2018-Jul-19 17:28N 40°43' W 074°01'0 0.0
2018-Jul-19 16:58N 40°43' W 074°01'0 0.0
2018-Jul-19 16:28N 40°43' W 074°01'0 0.0
2018-Jul-19 15:58N 40°43' W 074°01'0 0.0
2018-Jul-19 15:28N 40°43' W 074°01'0 0.0
2018-Jul-19 14:58N 40°43' W 074°01'0 0.0
2018-Jul-19 14:28N 40°43' W 074°01'0 0.0
2018-Jul-19 13:28N 40°43' W 074°01'0 0.0
2018-Jul-19 12:58N 40°43' W 074°01'0 0.0
2018-Jul-19 12:28N 40°43' W 074°01'0 0.0
2018-Jul-19 11:58N 40°43' W 074°01'0 0.0
2018-Jul-19 11:28N 40°43' W 074°01'0 0.0
2018-Jul-19 10:58N 40°43' W 074°01'0 0.0
2018-Jul-19 10:28N 40°43' W 074°01'0 0.0
2018-Jul-19 09:58N 40°43' W 074°01'0 0.0
2018-Jul-19 09:28N 40°43' W 074°01'0 0.0
2018-Jul-19 08:58N 40°43' W 074°01'0 0.0
2018-Jul-19 08:28N 40°43' W 074°01'0 0.0
2018-Jul-19 07:58N 40°43' W 074°01'0 0.0
2018-Jul-19 07:28N 40°43' W 074°01'0 0.0
2018-Jul-19 06:58N 40°43' W 074°01'0 0.0
2018-Jul-19 06:28N 40°43' W 074°01'0 0.0
2018-Jul-19 05:58N 40°43' W 074°01'0 0.0
2018-Jul-19 05:28N 40°43' W 074°01'0 0.0
2018-Jul-19 04:58N 40°43' W 074°01'0 0.0
2018-Jul-19 04:28N 40°43' W 074°01'0 0.0
2018-Jul-19 03:58N 40°43' W 074°01'0 0.0
2018-Jul-19 03:28N 40°43' W 074°01'0 0.0
2018-Jul-19 02:58N 40°43' W 074°01'0 0.0
2018-Jul-19 02:28N 40°43' W 074°01'0 0.0
2018-Jul-19 01:58N 40°43' W 074°01'0 0.0
2018-Jul-19 01:28N 40°43' W 074°01'0 0.1
2018-Jul-19 00:58N 40°43' W 074°01'0 0.1
2018-Jul-19 00:28N 40°43' W 074°01'0 0.0
2018-Jul-18 23:58N 40°43' W 074°01'0 0.0
2018-Jul-18 23:28N 40°43' W 074°01'0 0.0
2018-Jul-18 22:58N 40°43' W 074°01'0 0.0
2018-Jul-18 22:28N 40°43' W 074°01'0 0.0
2018-Jul-18 21:58N 40°43' W 074°01'0 0.0
2018-Jul-18 21:28N 40°43' W 074°01'0 0.0
2018-Jul-18 20:58N 40°43' W 074°01'0 0.0
2018-Jul-18 20:28N 40°43' W 074°01'0 0.0
2018-Jul-18 19:58N 40°43' W 074°01'0 0.0
2018-Jul-18 19:28N 40°43' W 074°01'0 0.0
2018-Jul-18 18:58N 40°43' W 074°01'0 0.0
2018-Jul-18 18:28N 40°43' W 074°01'0 0.0
2018-Jul-18 17:58N 40°43' W 074°01'0 0.0
2018-Jul-18 17:28N 40°43' W 074°01'0 0.0
2018-Jul-18 16:58N 40°43' W 074°01'0 0.0
2018-Jul-18 16:28N 40°43' W 074°01'0 0.0
2018-Jul-18 15:58N 40°43' W 074°01'0 0.0
2018-Jul-18 15:28N 40°43' W 074°01'0 0.0
2018-Jul-18 14:58N 40°43' W 074°01'0 0.0
2018-Jul-18 14:28N 40°43' W 074°01'0 0.0
2018-Jul-18 13:28N 40°43' W 074°01'0 0.0
2018-Jul-18 13:01N 40°43' W 074°01'0 0.0
2018-Jul-18 12:28N 40°43' W 074°01'0 0.0
2018-Jul-18 11:58N 40°43' W 074°01'0 0.0
2018-Jul-18 11:28N 40°43' W 074°01'0 0.0
2018-Jul-18 10:28N 40°43' W 074°01'0 0.0
2018-Jul-18 09:58N 40°43' W 074°01'0 0.0
2018-Jul-18 09:28N 40°43' W 074°01'0 0.0
2018-Jul-18 08:58N 40°43' W 074°01'0 0.0
2018-Jul-18 08:28N 40°43' W 074°01'0 0.0
2018-Jul-18 07:58N 40°43' W 074°01'0 0.0
2018-Jul-18 07:27N 40°43' W 074°01'0 0.0
2018-Jul-18 07:00N 40°43' W 074°01'0 0.0
2018-Jul-18 06:27N 40°43' W 074°01'0 0.0
2018-Jul-18 06:01N 40°43' W 074°01'0 0.0
2018-Jul-18 05:28N 40°43' W 074°01'0 0.0
2018-Jul-18 04:58N 40°43' W 074°01'0 0.0
2018-Jul-18 04:28N 40°43' W 074°01'0 0.0
2018-Jul-18 03:58N 40°43' W 074°01'0 0.0
2018-Jul-18 03:28N 40°43' W 074°01'0 0.0
2018-Jul-18 03:00N 40°43' W 074°01'0 0.0
2018-Jul-18 02:27N 40°43' W 074°01'0 0.0
2018-Jul-18 02:00N 40°43' W 074°01'0 0.0
2018-Jul-18 01:30N 40°43' W 074°01'0 0.0
2018-Jul-18 00:58N 40°43' W 074°01'0 0.0
2018-Jul-18 00:28N 40°43' W 074°01'0 0.0
2018-Jul-18 00:00N 40°43' W 074°01'0 0.0
2018-Jul-17 23:28N 40°43' W 074°01'0 0.0
2018-Jul-17 23:00N 40°43' W 074°01'0 0.0
2018-Jul-17 22:25N 40°43' W 074°01'0 0.0
2018-Jul-17 21:58N 40°43' W 074°01'0 0.0
2018-Jul-17 21:27N 40°43' W 074°01'0 0.0
2018-Jul-17 21:00N 40°43' W 074°01'0 0.0
2018-Jul-17 20:30N 40°43' W 074°01'0 0.0
2018-Jul-17 20:00N 40°43' W 074°01'0 0.0
2018-Jul-17 19:30N 40°43' W 074°01'0 0.0
2018-Jul-17 19:00N 40°43' W 074°01'0 0.0
2018-Jul-17 18:30N 40°43' W 074°01'0 0.0
2018-Jul-17 18:00N 40°43' W 074°01'0 0.0
2018-Jul-17 17:30N 40°43' W 074°01'0 0.0
2018-Jul-17 17:01N 40°43' W 074°01'0 0.0
2018-Jul-17 16:30N 40°43' W 074°01'0 0.0
2018-Jul-17 15:58N 40°43' W 074°01'0 0.0
2018-Jul-17 15:31N 40°43' W 074°01'0 0.0
2018-Jul-17 15:00N 40°43' W 074°01'0 0.0
2018-Jul-17 14:27N 40°43' W 074°01'0 0.0
2018-Jul-17 14:00N 40°43' W 074°01'0 0.0
2018-Jul-17 13:30N 40°43' W 074°01'0 0.0
2018-Jul-17 13:00N 40°43' W 074°01'0 0.0
2018-Jul-17 12:30N 40°43' W 074°01'0 0.0
2018-Jul-17 12:00N 40°43' W 074°01'0 0.0
2018-Jul-17 11:30N 40°43' W 074°01'0 0.0
2018-Jul-17 11:00N 40°43' W 074°01'0 0.0
2018-Jul-17 10:30N 40°43' W 074°01'0 0.0
2018-Jul-17 10:00N 40°43' W 074°01'0 0.0
2018-Jul-17 09:27N 40°43' W 074°01'0 0.0
2018-Jul-17 09:00N 40°43' W 074°01'0 0.0
2018-Jul-17 08:30N 40°43' W 074°01'0 0.0
2018-Jul-17 08:00N 40°43' W 074°01'0 0.0
2018-Jul-17 07:30N 40°43' W 074°01'0 0.0
2018-Jul-17 07:00N 40°43' W 074°01'0 0.0
2018-Jul-17 06:31N 40°43' W 074°01'0 0.0
2018-Jul-17 06:00N 40°43' W 074°01'0 0.0
2018-Jul-17 05:30N 40°43' W 074°01'0 0.0
2018-Jul-17 05:00N 40°43' W 074°01'0 0.0
2018-Jul-17 04:30N 40°43' W 074°01'0 0.0
2018-Jul-17 04:00N 40°43' W 074°01'0 0.0
2018-Jul-17 03:30N 40°43' W 074°01'0 0.0
2018-Jul-17 03:00N 40°43' W 074°01'0 0.0
2018-Jul-17 02:31N 40°43' W 074°01'0 0.0
2018-Jul-17 02:00N 40°43' W 074°01'0 0.0
2018-Jul-17 01:30N 40°43' W 074°01'0 0.0
2018-Jul-17 01:00N 40°43' W 074°01'0 0.0
2018-Jul-17 00:27N 40°43' W 074°01'0 0.0
2018-Jul-16 23:30N 40°43' W 074°01'0 0.0
2018-Jul-16 23:00N 40°43' W 074°01'0 0.0
2018-Jul-16 22:30N 40°43' W 074°01'0 0.0
2018-Jul-16 22:00N 40°43' W 074°01'0 0.0
2018-Jul-16 21:30N 40°43' W 074°01'0 0.0
2018-Jul-16 21:00N 40°43' W 074°01'0 0.0
2018-Jul-16 20:30N 40°43' W 074°01'0 0.0
2018-Jul-16 20:00N 40°43' W 074°01'0 0.0
2018-Jul-16 19:30N 40°43' W 074°01'0 0.0
2018-Jul-16 19:00N 40°43' W 074°01'0 0.0
2018-Jul-16 18:30N 40°43' W 074°01'0 0.0
2018-Jul-16 18:00N 40°43' W 074°01'0 0.0
2018-Jul-16 17:30N 40°43' W 074°01'0 0.0
2018-Jul-16 17:00N 40°43' W 074°01'0 0.0
2018-Jul-16 16:30N 40°43' W 074°01'0 0.0
2018-Jul-16 16:00N 40°43' W 074°01'0 0.0
2018-Jul-16 15:30N 40°43' W 074°01'0 0.0
2018-Jul-16 15:00N 40°43' W 074°01'0 0.0
2018-Jul-16 14:30N 40°43' W 074°01'0 0.0
2018-Jul-16 14:00N 40°43' W 074°01'0 0.0
2018-Jul-16 13:30N 40°43' W 074°01'0 0.0
2018-Jul-16 13:00N 40°43' W 074°01'0 0.0
2018-Jul-16 12:30N 40°43' W 074°01'0 0.0
2018-Jul-16 12:00N 40°43' W 074°01'0 0.0
2018-Jul-16 11:30N 40°43' W 074°01'0 0.0
2018-Jul-16 02:09N 40°43' W 074°01'0 0.0
2018-Jul-16 02:00N 40°43' W 074°01'0 0.0
2018-Jul-16 00:51N 40°43' W 074°01'0 0.0
2018-Jul-16 00:30N 40°43' W 074°01'0 0.0
2018-Jul-15 23:57N 40°43' W 074°01'0 0.0
2018-Jul-15 23:30N 40°43' W 074°01'0 0.7
2018-Jul-15 23:00N 40°43' W 074°01'6611.0
2018-Jul-15 16:59N 41°07' W 072°40'1313.1
2018-Jul-15 16:01N 41°10' W 072°23'114.4
2018-Jul-15 15:58N 41°10' W 072°22'  

Dump ship's entire track history